Airfield :
LOGIN :

Register | Disclaimer

   EN    FR    IT 

 










Legend :    VFR   Marginal VFR   IFR   Intensive IFR   Very Intensive IFR
Visi :
Ceiling :
>= 8 km
>= 3000ft
5 to 8 km
1000 to 3000 ft
1500m to 5 km
500 to 1000 ft
800 to 1500m
200 to 500 ft
< 800m
< 200 ft
Symbols :   Thunderstorms  Fog  Heavy snow  Heavy precipitations  Wind > 20 kt
SIGMETs :     Misc.  Thunderstorms  Icing  Turbulence  Mountain Waves  Volcanic Ashes







- Airport Elevation : 209 ft
- IATA code : CLY
- Download approach charts


LFKC - Calvi

CURRENT METAR :
  • 130700Z AUTO 20003KT 9999 -RA BKN042 BKN052 OVC062 08/07 Q1011 TEMPO 4500 -RA

EXPIRED METARs :
  • 130630Z AUTO 11003KT 7000 -RA FEW034 BKN048 OVC054 08/07 Q1011 TEMPO 4500 -RA
  • 130600Z AUTO 15003KT 9999 FEW047/// OVC054/// ///TCU 09/07 Q1011 TEMPO 4500 -RA BECMG BKN030 BKN050
  • 130530Z AUTO 19005KT 6000 -RA SCT040 BKN048 OVC054 09/07 Q1011 NOSIG
  • 130500Z AUTO 15004KT 5000 -RA BR FEW030 BKN041 OVC047 09/08 Q1011 NOSIG
  • 130430Z AUTO VRB02KT 4600 -RA BR FEW036 BKN043 BKN052 09/08 Q1011 BECMG 9999 NSW

TAF AMD TAF LFKC
Valid from the 13 at 05:00 until the 14 at 03:00 UTC


130535Z 1305/1403 19005KT 9999 BKN030 BKN050 TX13/1312Z TN06/1305Z
TEMPO 1305/1308 4500 -RA
BECMG 1309/1310 02010KT
TEMPO 1313/1324 7000 -RA BKN023 BKN040
BECMG 1316/1318 18005KT
ATIS : +33 4 95 65 82 49
No reported NOTAMs for that airfield.
1 SIGMET reported for the Marseille FIR (LFMM) :
 
Severe icing
LFMM SIGMET 1 VALID 130700/130900 LFPW
LFMM MARSEILLE FIR/UIR SEV ICE OBS AT 0655Z WI N4315 E00230 - N4430 E00245 - N4345 E00345 - N4315 E00330 - N4315 E00230 FL050/200 MOV SE 25KT NC=



MET'MAP, your aeronautical weather chart ! - Copyright ORBIFLY December 2007 - Disclaimer

ORBIFLY MET'MAP TEAM :

Programming & Development : Alexandra Zaïnal
Concept & Development : Baudouin d'Aumeries
Co-Development & Prog : Marc-Olivier Méhu
Technical & hardware support : Manuel Goepfert

Contact : metmap@orbifly.com




SOURCES & CREDITS :

   NOAA